Main page
METAR-TAF:

METAR-TAF

Airports :

Jay Prakash Narayan International Airport

Patna, India

latitude: 25-36N, longitude: 085-06E, elevation: 51 m

Current weather observation

The report was made 19 minutes ago, at 19:00 UTC
Wind 6 kt from the East
Temperature 30°C
Humidity 79%
Pressure 1000 hPa
Visibility: 3000 m
Scattered clouds at a height of 10000 ft
mist

METAR: VEPT 251900Z 10006KT 3000 BR SCT100 30/26 Q1000 NOSIG

Time: 00:49 (19:19 UTC)

Forecast

The report was made 2 hours and 19 minutes ago, at 17:00 UTC
Forecast valid from 25 at 18 UTC to 26 at 03 UTC
Wind 10 kt from the East
Visibility: 3500 m
Few clouds at a height of 2000 ft
Scattered clouds at a height of 10000 ft
mist
Becoming
from 25 at 21 UTC to 25 at 23 UTC
Visibility: 2500 m
Scattered clouds at a height of 10000 ft
mist

TAF: VEPT 251700Z 2518/2603 09010KT 3500 BR FEW020 SCT100 BECMG 2521/2523 2500 BR SCT100

Weather observations and forecasts of more than 4000 airports (METAR and TAF reports).

The available stations are represented by yellow and red dots on the map.

Hover mouse over dot to see the name of the station.

Then click to see weather observations and forecasts.

To change the map : click on the green buttons with a black cross to zoom in, on the green button with a dash to zoom out, or on the green arrows for adjacent maps.


METAR-TAF: